sensor_id;sensor_type;location;lat;lon;timestamp;P1;durP1;ratioP1;P2;durP2;ratioP2
75603;SDS011;64187;51.010;13.792;2023-04-20T00:00:10;5.15;;;4.10;;
75603;SDS011;64187;51.010;13.792;2023-04-20T00:05:12;4.45;;;3.40;;
75603;SDS011;64187;51.010;13.792;2023-04-20T00:10:11;5.03;;;4.03;;
75603;SDS011;64187;51.010;13.792;2023-04-20T00:15:10;4.80;;;3.92;;
75603;SDS011;64187;51.010;13.792;2023-04-20T00:20:09;6.35;;;4.05;;
75603;SDS011;64187;51.010;13.792;2023-04-20T00:25:10;5.65;;;4.00;;
75603;SDS011;64187;51.010;13.792;2023-04-20T00:30:09;5.88;;;4.03;;
75603;SDS011;64187;51.010;13.792;2023-04-20T00:35:08;6.05;;;4.15;;
75603;SDS011;64187;51.010;13.792;2023-04-20T00:40:07;5.57;;;4.22;;
75603;SDS011;64187;51.010;13.792;2023-04-20T00:45:07;5.22;;;4.70;;
75603;SDS011;64187;51.010;13.792;2023-04-20T00:50:07;5.85;;;4.75;;
75603;SDS011;64187;51.010;13.792;2023-04-20T00:55:09;6.00;;;4.35;;
75603;SDS011;64187;51.010;13.792;2023-04-20T01:00:08;5.75;;;4.78;;
75603;SDS011;64187;51.010;13.792;2023-04-20T01:05:08;6.22;;;5.05;;
75603;SDS011;64187;51.010;13.792;2023-04-20T01:10:07;5.35;;;4.85;;
75603;SDS011;64187;51.010;13.792;2023-04-20T01:15:10;7.53;;;4.78;;
75603;SDS011;64187;51.010;13.792;2023-04-20T01:20:10;7.00;;;5.07;;
75603;SDS011;64187;51.010;13.792;2023-04-20T01:25:10;6.63;;;4.95;;
75603;SDS011;64187;51.010;13.792;2023-04-20T01:30:09;7.45;;;4.85;;
75603;SDS011;64187;51.010;13.792;2023-04-20T01:35:08;5.00;;;4.32;;
75603;SDS011;64187;51.010;13.792;2023-04-20T01:40:08;7.57;;;5.22;;
75603;SDS011;64187;51.010;13.792;2023-04-20T01:45:09;6.57;;;5.50;;
75603;SDS011;64187;51.010;13.792;2023-04-20T01:50:08;7.10;;;4.95;;
75603;SDS011;64187;51.010;13.792;2023-04-20T01:55:07;8.02;;;5.50;;
75603;SDS011;64187;51.010;13.792;2023-04-20T02:00:06;8.00;;;6.05;;
75603;SDS011;64187;51.010;13.792;2023-04-20T02:05:11;7.40;;;5.97;;
75603;SDS011;64187;51.010;13.792;2023-04-20T02:10:10;7.72;;;5.63;;
75603;SDS011;64187;51.010;13.792;2023-04-20T02:15:10;6.43;;;4.88;;
75603;SDS011;64187;51.010;13.792;2023-04-20T02:20:09;8.77;;;6.10;;
75603;SDS011;64187;51.010;13.792;2023-04-20T02:25:08;8.00;;;5.72;;
75603;SDS011;64187;51.010;13.792;2023-04-20T02:30:08;7.05;;;5.68;;
75603;SDS011;64187;51.010;13.792;2023-04-20T02:35:08;7.55;;;5.68;;
75603;SDS011;64187;51.010;13.792;2023-04-20T02:40:07;8.13;;;5.57;;
75603;SDS011;64187;51.010;13.792;2023-04-20T02:45:06;7.90;;;5.57;;
75603;SDS011;64187;51.010;13.792;2023-04-20T02:50:06;8.50;;;6.93;;
75603;SDS011;64187;51.010;13.792;2023-04-20T02:55:22;10.25;;;6.95;;
75603;SDS011;64187;51.010;13.792;2023-04-20T03:00:24;8.60;;;6.10;;
75603;SDS011;64187;51.010;13.792;2023-04-20T03:05:32;7.85;;;5.47;;
75603;SDS011;64187;51.010;13.792;2023-04-20T03:10:31;7.68;;;6.20;;
75603;SDS011;64187;51.010;13.792;2023-04-20T03:15:42;11.75;;;6.85;;
75603;SDS011;64187;51.010;13.792;2023-04-20T03:20:54;11.45;;;7.50;;
75603;SDS011;64187;51.010;13.792;2023-04-20T03:25:53;11.07;;;7.72;;
75603;SDS011;64187;51.010;13.792;2023-04-20T03:31:09;10.82;;;7.25;;
75603;SDS011;64187;51.010;13.792;2023-04-20T03:36:08;12.27;;;8.30;;
75603;SDS011;64187;51.010;13.792;2023-04-20T03:41:08;12.02;;;7.70;;
75603;SDS011;64187;51.010;13.792;2023-04-20T03:46:09;12.10;;;8.07;;
75603;SDS011;64187;51.010;13.792;2023-04-20T03:51:07;12.80;;;7.63;;
75603;SDS011;64187;51.010;13.792;2023-04-20T03:56:08;12.10;;;8.15;;
75603;SDS011;64187;51.010;13.792;2023-04-20T04:01:08;12.90;;;8.32;;
75603;SDS011;64187;51.010;13.792;2023-04-20T04:06:11;13.55;;;7.95;;
75603;SDS011;64187;51.010;13.792;2023-04-20T04:11:11;13.18;;;8.63;;
75603;SDS011;64187;51.010;13.792;2023-04-20T04:16:10;16.13;;;8.57;;
75603;SDS011;64187;51.010;13.792;2023-04-20T04:21:09;13.63;;;8.10;;
75603;SDS011;64187;51.010;13.792;2023-04-20T04:26:11;13.52;;;7.78;;
75603;SDS011;64187;51.010;13.792;2023-04-20T04:31:13;25.95;;;12.23;;
75603;SDS011;64187;51.010;13.792;2023-04-20T04:36:15;11.65;;;6.93;;
75603;SDS011;64187;51.010;13.792;2023-04-20T04:41:14;11.85;;;7.95;;
75603;SDS011;64187;51.010;13.792;2023-04-20T04:46:17;9.90;;;6.30;;
75603;SDS011;64187;51.010;13.792;2023-04-20T04:51:16;10.15;;;6.20;;
75603;SDS011;64187;51.010;13.792;2023-04-20T04:56:15;9.70;;;7.40;;
75603;SDS011;64187;51.010;13.792;2023-04-20T05:01:15;9.52;;;7.03;;
75603;SDS011;64187;51.010;13.792;2023-04-20T05:06:14;10.32;;;7.15;;
75603;SDS011;64187;51.010;13.792;2023-04-20T05:11:13;10.98;;;7.43;;
75603;SDS011;64187;51.010;13.792;2023-04-20T05:16:12;15.13;;;9.65;;
75603;SDS011;64187;51.010;13.792;2023-04-20T05:21:11;14.30;;;8.52;;
75603;SDS011;64187;51.010;13.792;2023-04-20T05:26:10;12.63;;;8.25;;
75603;SDS011;64187;51.010;13.792;2023-04-20T05:31:09;14.55;;;8.85;;
75603;SDS011;64187;51.010;13.792;2023-04-20T05:36:08;15.48;;;8.40;;
75603;SDS011;64187;51.010;13.792;2023-04-20T05:41:07;14.18;;;8.30;;
75603;SDS011;64187;51.010;13.792;2023-04-20T05:46:06;16.00;;;8.73;;
75603;SDS011;64187;51.010;13.792;2023-04-20T05:51:05;14.30;;;8.68;;
75603;SDS011;64187;51.010;13.792;2023-04-20T05:56:04;15.98;;;8.88;;
75603;SDS011;64187;51.010;13.792;2023-04-20T06:01:04;16.38;;;8.88;;
75603;SDS011;64187;51.010;13.792;2023-04-20T06:06:03;17.27;;;9.07;;
75603;SDS011;64187;51.010;13.792;2023-04-20T06:11:02;17.65;;;9.18;;
75603;SDS011;64187;51.010;13.792;2023-04-20T06:16:01;15.82;;;9.48;;
75603;SDS011;64187;51.010;13.792;2023-04-20T06:21:00;14.15;;;9.52;;
75603;SDS011;64187;51.010;13.792;2023-04-20T06:25:59;14.52;;;8.18;;
75603;SDS011;64187;51.010;13.792;2023-04-20T06:30:58;14.15;;;8.70;;
75603;SDS011;64187;51.010;13.792;2023-04-20T06:35:57;15.40;;;9.05;;
75603;SDS011;64187;51.010;13.792;2023-04-20T06:40:56;16.50;;;9.70;;
75603;SDS011;64187;51.010;13.792;2023-04-20T06:45:59;15.90;;;8.50;;
75603;SDS011;64187;51.010;13.792;2023-04-20T06:51:00;13.00;;;7.82;;
75603;SDS011;64187;51.010;13.792;2023-04-20T06:55:59;10.77;;;7.07;;
75603;SDS011;64187;51.010;13.792;2023-04-20T07:00:58;12.50;;;7.78;;
75603;SDS011;64187;51.010;13.792;2023-04-20T07:05:57;13.57;;;7.63;;
75603;SDS011;64187;51.010;13.792;2023-04-20T07:10:55;13.52;;;7.72;;
75603;SDS011;64187;51.010;13.792;2023-04-20T07:15:54;14.00;;;8.48;;
75603;SDS011;64187;51.010;13.792;2023-04-20T07:20:53;12.80;;;7.72;;
75603;SDS011;64187;51.010;13.792;2023-04-20T07:25:52;13.02;;;8.45;;
75603;SDS011;64187;51.010;13.792;2023-04-20T07:30:51;17.25;;;7.68;;
75603;SDS011;64187;51.010;13.792;2023-04-20T07:35:50;12.98;;;8.20;;
75603;SDS011;64187;51.010;13.792;2023-04-20T07:40:49;12.65;;;8.43;;
75603;SDS011;64187;51.010;13.792;2023-04-20T07:45:48;15.75;;;10.57;;
75603;SDS011;64187;51.010;13.792;2023-04-20T07:50:47;18.80;;;11.30;;
75603;SDS011;64187;51.010;13.792;2023-04-20T07:55:46;19.20;;;10.65;;
75603;SDS011;64187;51.010;13.792;2023-04-20T08:00:48;15.20;;;9.50;;
75603;SDS011;64187;51.010;13.792;2023-04-20T08:05:46;16.20;;;9.02;;
75603;SDS011;64187;51.010;13.792;2023-04-20T08:10:45;17.65;;;9.63;;
75603;SDS011;64187;51.010;13.792;2023-04-20T08:15:44;18.45;;;9.90;;
75603;SDS011;64187;51.010;13.792;2023-04-20T08:20:43;17.08;;;9.85;;
75603;SDS011;64187;51.010;13.792;2023-04-20T08:25:43;18.30;;;10.10;;
75603;SDS011;64187;51.010;13.792;2023-04-20T08:30:42;17.73;;;10.48;;
75603;SDS011;64187;51.010;13.792;2023-04-20T08:35:41;16.98;;;10.23;;
75603;SDS011;64187;51.010;13.792;2023-04-20T08:40:39;17.98;;;10.25;;
75603;SDS011;64187;51.010;13.792;2023-04-20T08:45:38;15.93;;;9.80;;
75603;SDS011;64187;51.010;13.792;2023-04-20T08:50:43;19.33;;;10.88;;
75603;SDS011;64187;51.010;13.792;2023-04-20T08:55:42;19.02;;;11.13;;
75603;SDS011;64187;51.010;13.792;2023-04-20T09:00:45;18.40;;;10.32;;
75603;SDS011;64187;51.010;13.792;2023-04-20T09:05:45;15.98;;;10.15;;
75603;SDS011;64187;51.010;13.792;2023-04-20T09:10:43;16.05;;;10.52;;
75603;SDS011;64187;51.010;13.792;2023-04-20T09:15:42;16.67;;;10.50;;
75603;SDS011;64187;51.010;13.792;2023-04-20T09:20:41;17.25;;;10.60;;
75603;SDS011;64187;51.010;13.792;2023-04-20T09:25:40;19.17;;;10.98;;
75603;SDS011;64187;51.010;13.792;2023-04-20T09:30:41;17.92;;;11.68;;
75603;SDS011;64187;51.010;13.792;2023-04-20T09:35:43;18.77;;;10.95;;
75603;SDS011;64187;51.010;13.792;2023-04-20T09:40:43;18.73;;;11.63;;
75603;SDS011;64187;51.010;13.792;2023-04-20T09:45:42;20.08;;;11.50;;
75603;SDS011;64187;51.010;13.792;2023-04-20T09:50:41;20.60;;;11.43;;
75603;SDS011;64187;51.010;13.792;2023-04-20T09:55:48;19.58;;;11.98;;
75603;SDS011;64187;51.010;13.792;2023-04-20T10:00:49;18.00;;;11.48;;
75603;SDS011;64187;51.010;13.792;2023-04-20T10:05:49;20.33;;;12.60;;
75603;SDS011;64187;51.010;13.792;2023-04-20T10:10:50;20.48;;;12.80;;
75603;SDS011;64187;51.010;13.792;2023-04-20T10:15:49;18.17;;;10.93;;
75603;SDS011;64187;51.010;13.792;2023-04-20T10:20:48;21.48;;;12.27;;
75603;SDS011;64187;51.010;13.792;2023-04-20T10:25:58;21.33;;;11.65;;
75603;SDS011;64187;51.010;13.792;2023-04-20T10:30:58;20.13;;;12.57;;
75603;SDS011;64187;51.010;13.792;2023-04-20T10:35:57;21.05;;;11.93;;
75603;SDS011;64187;51.010;13.792;2023-04-20T10:41:04;22.58;;;13.25;;
75603;SDS011;64187;51.010;13.792;2023-04-20T10:51:19;20.88;;;12.63;;
75603;SDS011;64187;51.010;13.792;2023-04-20T10:56:18;22.02;;;12.98;;
75603;SDS011;64187;51.010;13.792;2023-04-20T11:01:17;22.15;;;13.13;;
75603;SDS011;64187;51.010;13.792;2023-04-20T11:06:17;23.42;;;13.13;;
75603;SDS011;64187;51.010;13.792;2023-04-20T11:11:16;20.42;;;12.93;;
75603;SDS011;64187;51.010;13.792;2023-04-20T11:16:19;20.35;;;12.45;;
75603;SDS011;64187;51.010;13.792;2023-04-20T11:21:19;21.90;;;11.80;;
75603;SDS011;64187;51.010;13.792;2023-04-20T11:26:18;20.55;;;12.27;;
75603;SDS011;64187;51.010;13.792;2023-04-20T11:31:17;23.17;;;14.13;;
75603;SDS011;64187;51.010;13.792;2023-04-20T11:36:20;23.40;;;14.07;;
75603;SDS011;64187;51.010;13.792;2023-04-20T11:41:20;19.88;;;12.43;;
75603;SDS011;64187;51.010;13.792;2023-04-20T11:46:19;21.42;;;13.98;;
75603;SDS011;64187;51.010;13.792;2023-04-20T11:51:18;23.35;;;13.68;;
75603;SDS011;64187;51.010;13.792;2023-04-20T11:56:17;22.05;;;14.23;;
75603;SDS011;64187;51.010;13.792;2023-04-20T12:01:16;23.17;;;14.20;;
75603;SDS011;64187;51.010;13.792;2023-04-20T12:06:16;22.63;;;15.10;;
75603;SDS011;64187;51.010;13.792;2023-04-20T12:11:14;23.20;;;15.68;;
75603;SDS011;64187;51.010;13.792;2023-04-20T12:16:16;22.80;;;15.98;;
75603;SDS011;64187;51.010;13.792;2023-04-20T12:21:15;24.40;;;15.98;;
75603;SDS011;64187;51.010;13.792;2023-04-20T12:26:14;25.30;;;16.17;;
75603;SDS011;64187;51.010;13.792;2023-04-20T12:31:14;24.30;;;15.20;;
75603;SDS011;64187;51.010;13.792;2023-04-20T12:36:13;26.58;;;14.88;;
75603;SDS011;64187;51.010;13.792;2023-04-20T12:41:12;24.80;;;15.25;;
75603;SDS011;64187;51.010;13.792;2023-04-20T12:46:12;24.33;;;15.75;;
75603;SDS011;64187;51.010;13.792;2023-04-20T12:51:11;23.45;;;15.48;;
75603;SDS011;64187;51.010;13.792;2023-04-20T12:56:11;22.25;;;16.35;;
75603;SDS011;64187;51.010;13.792;2023-04-20T13:01:10;23.70;;;16.05;;
75603;SDS011;64187;51.010;13.792;2023-04-20T13:06:09;25.00;;;15.88;;
75603;SDS011;64187;51.010;13.792;2023-04-20T13:11:11;22.73;;;15.23;;
75603;SDS011;64187;51.010;13.792;2023-04-20T13:16:13;23.73;;;14.85;;
75603;SDS011;64187;51.010;13.792;2023-04-20T13:21:13;25.15;;;15.50;;
75603;SDS011;64187;51.010;13.792;2023-04-20T13:26:12;23.80;;;14.20;;
75603;SDS011;64187;51.010;13.792;2023-04-20T13:31:10;21.75;;;14.13;;
75603;SDS011;64187;51.010;13.792;2023-04-20T13:36:09;22.20;;;14.43;;
75603;SDS011;64187;51.010;13.792;2023-04-20T13:41:08;22.88;;;14.10;;
75603;SDS011;64187;51.010;13.792;2023-04-20T13:46:08;21.08;;;13.90;;
75603;SDS011;64187;51.010;13.792;2023-04-20T13:51:07;25.15;;;14.70;;
75603;SDS011;64187;51.010;13.792;2023-04-20T13:56:06;20.50;;;12.80;;
75603;SDS011;64187;51.010;13.792;2023-04-20T14:01:06;22.50;;;13.55;;
75603;SDS011;64187;51.010;13.792;2023-04-20T14:06:06;21.15;;;12.93;;
75603;SDS011;64187;51.010;13.792;2023-04-20T14:11:05;20.73;;;12.57;;
75603;SDS011;64187;51.010;13.792;2023-04-20T14:16:07;17.83;;;12.00;;
75603;SDS011;64187;51.010;13.792;2023-04-20T14:21:08;17.52;;;11.82;;
75603;SDS011;64187;51.010;13.792;2023-04-20T14:26:07;22.48;;;12.23;;
75603;SDS011;64187;51.010;13.792;2023-04-20T14:31:06;17.60;;;12.43;;
75603;SDS011;64187;51.010;13.792;2023-04-20T14:36:04;18.17;;;11.90;;
75603;SDS011;64187;51.010;13.792;2023-04-20T14:41:03;20.73;;;12.77;;
75603;SDS011;64187;51.010;13.792;2023-04-20T14:46:05;19.27;;;12.18;;
75603;SDS011;64187;51.010;13.792;2023-04-20T14:51:05;20.13;;;12.93;;
75603;SDS011;64187;51.010;13.792;2023-04-20T14:56:04;21.70;;;12.40;;
75603;SDS011;64187;51.010;13.792;2023-04-20T15:01:03;19.83;;;13.60;;
75603;SDS011;64187;51.010;13.792;2023-04-20T15:06:02;19.88;;;13.95;;
75603;SDS011;64187;51.010;13.792;2023-04-20T15:11:01;22.15;;;13.50;;
75603;SDS011;64187;51.010;13.792;2023-04-20T15:16:02;21.98;;;13.32;;
75603;SDS011;64187;51.010;13.792;2023-04-20T15:21:01;22.17;;;14.20;;
75603;SDS011;64187;51.010;13.792;2023-04-20T15:26:00;19.52;;;13.15;;
75603;SDS011;64187;51.010;13.792;2023-04-20T15:30:59;19.98;;;12.82;;
75603;SDS011;64187;51.010;13.792;2023-04-20T15:35:58;19.50;;;12.73;;
75603;SDS011;64187;51.010;13.792;2023-04-20T15:40:57;23.90;;;14.88;;
75603;SDS011;64187;51.010;13.792;2023-04-20T15:45:57;22.15;;;13.02;;
75603;SDS011;64187;51.010;13.792;2023-04-20T15:50:56;22.80;;;14.70;;
75603;SDS011;64187;51.010;13.792;2023-04-20T15:55:54;18.67;;;12.80;;
75603;SDS011;64187;51.010;13.792;2023-04-20T16:00:53;24.65;;;14.07;;
75603;SDS011;64187;51.010;13.792;2023-04-20T16:05:52;20.73;;;13.95;;
75603;SDS011;64187;51.010;13.792;2023-04-20T16:10:51;22.08;;;14.30;;
75603;SDS011;64187;51.010;13.792;2023-04-20T16:15:53;22.58;;;15.07;;
75603;SDS011;64187;51.010;13.792;2023-04-20T16:20:53;26.52;;;15.77;;
75603;SDS011;64187;51.010;13.792;2023-04-20T16:25:52;22.08;;;14.85;;
75603;SDS011;64187;51.010;13.792;2023-04-20T16:30:51;20.50;;;13.40;;
75603;SDS011;64187;51.010;13.792;2023-04-20T16:35:50;29.20;;;17.13;;
75603;SDS011;64187;51.010;13.792;2023-04-20T16:40:49;19.92;;;13.23;;
75603;SDS011;64187;51.010;13.792;2023-04-20T16:45:49;21.52;;;13.98;;
75603;SDS011;64187;51.010;13.792;2023-04-20T16:50:48;18.60;;;13.27;;
75603;SDS011;64187;51.010;13.792;2023-04-20T16:55:47;21.52;;;12.77;;
75603;SDS011;64187;51.010;13.792;2023-04-20T17:00:46;20.30;;;13.23;;
75603;SDS011;64187;51.010;13.792;2023-04-20T17:05:45;23.27;;;15.13;;
75603;SDS011;64187;51.010;13.792;2023-04-20T17:10:44;20.95;;;14.18;;
75603;SDS011;64187;51.010;13.792;2023-04-20T17:15:43;20.38;;;13.82;;
75603;SDS011;64187;51.010;13.792;2023-04-20T17:20:43;20.17;;;13.93;;
75603;SDS011;64187;51.010;13.792;2023-04-20T17:25:43;22.98;;;14.75;;
75603;SDS011;64187;51.010;13.792;2023-04-20T17:30:44;23.73;;;14.98;;
75603;SDS011;64187;51.010;13.792;2023-04-20T17:35:43;25.40;;;14.32;;
75603;SDS011;64187;51.010;13.792;2023-04-20T17:40:43;22.73;;;14.00;;
75603;SDS011;64187;51.010;13.792;2023-04-20T17:45:42;20.92;;;13.90;;
75603;SDS011;64187;51.010;13.792;2023-04-20T17:50:41;22.73;;;14.48;;
75603;SDS011;64187;51.010;13.792;2023-04-20T17:55:40;21.77;;;13.90;;
75603;SDS011;64187;51.010;13.792;2023-04-20T18:00:39;26.90;;;15.48;;
75603;SDS011;64187;51.010;13.792;2023-04-20T18:05:38;24.42;;;17.40;;
75603;SDS011;64187;51.010;13.792;2023-04-20T18:10:36;29.67;;;20.17;;
75603;SDS011;64187;51.010;13.792;2023-04-20T18:15:36;32.08;;;19.25;;
75603;SDS011;64187;51.010;13.792;2023-04-20T18:20:35;25.08;;;15.73;;
75603;SDS011;64187;51.010;13.792;2023-04-20T18:25:34;25.17;;;15.23;;
75603;SDS011;64187;51.010;13.792;2023-04-20T18:30:33;23.73;;;14.40;;
75603;SDS011;64187;51.010;13.792;2023-04-20T18:35:32;20.35;;;12.48;;
75603;SDS011;64187;51.010;13.792;2023-04-20T18:40:31;25.27;;;14.80;;
75603;SDS011;64187;51.010;13.792;2023-04-20T18:45:30;25.23;;;15.38;;
75603;SDS011;64187;51.010;13.792;2023-04-20T18:50:29;24.70;;;15.98;;
75603;SDS011;64187;51.010;13.792;2023-04-20T18:55:27;25.98;;;15.18;;
75603;SDS011;64187;51.010;13.792;2023-04-20T19:00:26;25.02;;;15.77;;
75603;SDS011;64187;51.010;13.792;2023-04-20T19:05:25;29.67;;;17.27;;
75603;SDS011;64187;51.010;13.792;2023-04-20T19:10:24;26.63;;;14.25;;
75603;SDS011;64187;51.010;13.792;2023-04-20T19:15:23;38.22;;;21.35;;
75603;SDS011;64187;51.010;13.792;2023-04-20T19:20:23;39.72;;;19.88;;
75603;SDS011;64187;51.010;13.792;2023-04-20T19:25:22;36.75;;;19.23;;
75603;SDS011;64187;51.010;13.792;2023-04-20T19:30:21;31.20;;;18.92;;
75603;SDS011;64187;51.010;13.792;2023-04-20T19:35:20;31.38;;;19.45;;
75603;SDS011;64187;51.010;13.792;2023-04-20T19:40:19;30.60;;;18.90;;
75603;SDS011;64187;51.010;13.792;2023-04-20T19:45:21;24.85;;;16.10;;
75603;SDS011;64187;51.010;13.792;2023-04-20T19:50:21;26.13;;;15.95;;
75603;SDS011;64187;51.010;13.792;2023-04-20T19:55:19;27.15;;;16.48;;
75603;SDS011;64187;51.010;13.792;2023-04-20T20:00:18;30.73;;;17.48;;
75603;SDS011;64187;51.010;13.792;2023-04-20T20:05:17;25.08;;;16.40;;
75603;SDS011;64187;51.010;13.792;2023-04-20T20:10:16;25.15;;;14.65;;
75603;SDS011;64187;51.010;13.792;2023-04-20T20:15:15;32.35;;;18.73;;
75603;SDS011;64187;51.010;13.792;2023-04-20T20:20:14;14.82;;;9.05;;
75603;SDS011;64187;51.010;13.792;2023-04-20T20:25:13;23.52;;;14.32;;
75603;SDS011;64187;51.010;13.792;2023-04-20T20:30:13;24.52;;;13.77;;
75603;SDS011;64187;51.010;13.792;2023-04-20T20:35:12;23.02;;;14.07;;
75603;SDS011;64187;51.010;13.792;2023-04-20T20:40:11;21.98;;;14.50;;
75603;SDS011;64187;51.010;13.792;2023-04-20T20:45:12;23.48;;;14.77;;
75603;SDS011;64187;51.010;13.792;2023-04-20T20:50:12;25.27;;;14.55;;
75603;SDS011;64187;51.010;13.792;2023-04-20T20:55:12;24.85;;;15.77;;
75603;SDS011;64187;51.010;13.792;2023-04-20T21:00:10;25.60;;;14.07;;
75603;SDS011;64187;51.010;13.792;2023-04-20T21:05:11;25.90;;;14.15;;
75603;SDS011;64187;51.010;13.792;2023-04-20T21:10:10;25.63;;;15.77;;
75603;SDS011;64187;51.010;13.792;2023-04-20T21:15:09;23.20;;;13.30;;
75603;SDS011;64187;51.010;13.792;2023-04-20T21:20:08;21.75;;;13.68;;
75603;SDS011;64187;51.010;13.792;2023-04-20T21:25:08;22.35;;;13.55;;
75603;SDS011;64187;51.010;13.792;2023-04-20T21:30:07;20.70;;;13.90;;
75603;SDS011;64187;51.010;13.792;2023-04-20T21:35:06;20.58;;;12.93;;
75603;SDS011;64187;51.010;13.792;2023-04-20T21:40:06;18.52;;;12.48;;
75603;SDS011;64187;51.010;13.792;2023-04-20T21:45:05;22.17;;;12.50;;
75603;SDS011;64187;51.010;13.792;2023-04-20T21:50:05;20.33;;;13.68;;
75603;SDS011;64187;51.010;13.792;2023-04-20T21:55:04;20.95;;;12.45;;
75603;SDS011;64187;51.010;13.792;2023-04-20T22:00:04;23.38;;;14.13;;
75603;SDS011;64187;51.010;13.792;2023-04-20T22:05:11;19.83;;;12.65;;
75603;SDS011;64187;51.010;13.792;2023-04-20T22:10:10;21.13;;;14.18;;
75603;SDS011;64187;51.010;13.792;2023-04-20T22:15:10;18.67;;;12.85;;
75603;SDS011;64187;51.010;13.792;2023-04-20T22:20:11;21.52;;;13.18;;
75603;SDS011;64187;51.010;13.792;2023-04-20T22:25:11;16.67;;;11.68;;
75603;SDS011;64187;51.010;13.792;2023-04-20T22:30:10;18.13;;;12.75;;
75603;SDS011;64187;51.010;13.792;2023-04-20T22:35:09;20.92;;;12.65;;
75603;SDS011;64187;51.010;13.792;2023-04-20T22:40:08;21.17;;;12.40;;
75603;SDS011;64187;51.010;13.792;2023-04-20T22:45:07;16.65;;;12.38;;
75603;SDS011;64187;51.010;13.792;2023-04-20T22:50:09;19.60;;;13.30;;
75603;SDS011;64187;51.010;13.792;2023-04-20T22:55:09;22.95;;;13.50;;
75603;SDS011;64187;51.010;13.792;2023-04-20T23:00:08;19.40;;;12.55;;
75603;SDS011;64187;51.010;13.792;2023-04-20T23:05:08;20.58;;;12.43;;
75603;SDS011;64187;51.010;13.792;2023-04-20T23:10:08;21.52;;;13.43;;
75603;SDS011;64187;51.010;13.792;2023-04-20T23:15:08;19.20;;;10.50;;
75603;SDS011;64187;51.010;13.792;2023-04-20T23:20:07;16.77;;;10.95;;
75603;SDS011;64187;51.010;13.792;2023-04-20T23:25:11;17.00;;;10.73;;
75603;SDS011;64187;51.010;13.792;2023-04-20T23:30:10;18.17;;;12.00;;
75603;SDS011;64187;51.010;13.792;2023-04-20T23:35:09;20.02;;;11.13;;
75603;SDS011;64187;51.010;13.792;2023-04-20T23:40:08;18.85;;;11.38;;
75603;SDS011;64187;51.010;13.792;2023-04-20T23:45:07;18.45;;;11.38;;
75603;SDS011;64187;51.010;13.792;2023-04-20T23:50:07;18.70;;;11.15;;
75603;SDS011;64187;51.010;13.792;2023-04-20T23:55:06;20.60;;;11.65;;
